sensor_id;sensor_type;location;lat;lon;timestamp;pressure;altitude;pressure_sealevel;temperature;humidity
26320;BME280;14024;52.226;5.200;2023-11-21T00:00:08;101098.69;;;7.75;100.00
26320;BME280;14024;52.226;5.200;2023-11-21T00:02:37;101096.97;;;7.74;100.00
26320;BME280;14024;52.226;5.200;2023-11-21T00:05:05;101102.25;;;7.74;100.00
26320;BME280;14024;52.226;5.200;2023-11-21T00:07:32;101111.97;;;7.72;100.00
26320;BME280;14024;52.226;5.200;2023-11-21T00:09:58;101113.75;;;7.71;100.00
26320;BME280;14024;52.226;5.200;2023-11-21T00:12:23;101116.47;;;7.70;100.00
26320;BME280;14024;52.226;5.200;2023-11-21T00:14:49;101120.88;;;7.69;100.00
26320;BME280;14024;52.226;5.200;2023-11-21T00:17:15;101121.94;;;7.63;100.00
26320;BME280;14024;52.226;5.200;2023-11-21T00:19:40;101114.81;;;7.66;100.00
26320;BME280;14024;52.226;5.200;2023-11-21T00:22:07;101118.28;;;7.68;100.00
26320;BME280;14024;52.226;5.200;2023-11-21T00:24:34;101130.66;;;7.66;100.00
26320;BME280;14024;52.226;5.200;2023-11-21T00:26:59;101120.22;;;7.62;100.00
26320;BME280;14024;52.226;5.200;2023-11-21T00:29:25;101135.94;;;7.66;100.00
26320;BME280;14024;52.226;5.200;2023-11-21T00:31:51;101124.59;;;7.63;100.00
26320;BME280;14024;52.226;5.200;2023-11-21T00:34:16;101125.38;;;7.66;100.00
26320;BME280;14024;52.226;5.200;2023-11-21T00:36:42;101126.31;;;7.65;100.00
26320;BME280;14024;52.226;5.200;2023-11-21T00:39:07;101123.75;;;7.61;100.00
26320;BME280;14024;52.226;5.200;2023-11-21T00:41:33;101122.91;;;7.61;100.00
26320;BME280;14024;52.226;5.200;2023-11-21T00:43:58;101122.25;;;7.54;100.00
26320;BME280;14024;52.226;5.200;2023-11-21T00:46:24;101120.63;;;7.50;100.00
26320;BME280;14024;52.226;5.200;2023-11-21T00:48:52;101127.56;;;7.53;100.00
26320;BME280;14024;52.226;5.200;2023-11-21T00:51:19;101139.97;;;7.51;100.00
26320;BME280;14024;52.226;5.200;2023-11-21T00:53:44;101135.44;;;7.54;100.00
26320;BME280;14024;52.226;5.200;2023-11-21T00:56:09;101133.69;;;7.55;100.00
26320;BME280;14024;52.226;5.200;2023-11-21T00:58:35;101141.50;;;7.56;100.00
26320;BME280;14024;52.226;5.200;2023-11-21T01:01:00;101143.34;;;7.54;100.00
26320;BME280;14024;52.226;5.200;2023-11-21T01:03:26;101146.72;;;7.59;100.00
26320;BME280;14024;52.226;5.200;2023-11-21T01:05:51;101143.84;;;7.66;100.00
26320;BME280;14024;52.226;5.200;2023-11-21T01:08:16;101148.22;;;7.67;100.00
26320;BME280;14024;52.226;5.200;2023-11-21T01:10:42;101143.66;;;7.72;100.00
26320;BME280;14024;52.226;5.200;2023-11-21T01:13:07;101158.44;;;7.76;100.00
26320;BME280;14024;52.226;5.200;2023-11-21T01:15:33;101156.63;;;7.78;100.00
26320;BME280;14024;52.226;5.200;2023-11-21T01:17:59;101154.75;;;7.81;100.00
26320;BME280;14024;52.226;5.200;2023-11-21T01:20:24;101157.28;;;7.84;100.00
26320;BME280;14024;52.226;5.200;2023-11-21T01:22:50;101148.44;;;7.85;100.00
26320;BME280;14024;52.226;5.200;2023-11-21T01:25:15;101159.75;;;7.89;100.00
26320;BME280;14024;52.226;5.200;2023-11-21T01:27:42;101161.59;;;7.87;100.00
26320;BME280;14024;52.226;5.200;2023-11-21T01:30:08;101157.94;;;7.91;100.00
26320;BME280;14024;52.226;5.200;2023-11-21T01:32:35;101158.81;;;7.91;100.00
26320;BME280;14024;52.226;5.200;2023-11-21T01:35:01;101167.50;;;7.93;100.00
26320;BME280;14024;52.226;5.200;2023-11-21T01:37:26;101169.34;;;7.91;100.00
26320;BME280;14024;52.226;5.200;2023-11-21T01:39:53;101164.84;;;7.95;100.00
26320;BME280;14024;52.226;5.200;2023-11-21T01:42:20;101170.00;;;7.98;100.00
26320;BME280;14024;52.226;5.200;2023-11-21T01:44:46;101182.16;;;8.02;100.00
26320;BME280;14024;52.226;5.200;2023-11-21T01:47:12;101178.63;;;8.03;100.00
26320;BME280;14024;52.226;5.200;2023-11-21T01:49:38;101183.78;;;8.06;100.00
26320;BME280;14024;52.226;5.200;2023-11-21T01:52:04;101182.88;;;8.07;100.00
26320;BME280;14024;52.226;5.200;2023-11-21T01:54:30;101190.75;;;8.08;100.00
26320;BME280;14024;52.226;5.200;2023-11-21T01:56:59;101190.69;;;8.10;100.00
26320;BME280;14024;52.226;5.200;2023-11-21T01:59:34;101194.13;;;8.12;100.00
26320;BME280;14024;52.226;5.200;2023-11-21T02:01:59;101200.13;;;8.17;100.00
26320;BME280;14024;52.226;5.200;2023-11-21T02:04:25;101195.66;;;8.19;100.00
26320;BME280;14024;52.226;5.200;2023-11-21T02:06:50;101207.06;;;8.20;100.00
26320;BME280;14024;52.226;5.200;2023-11-21T02:09:16;101207.88;;;8.22;100.00
26320;BME280;14024;52.226;5.200;2023-11-21T02:11:43;101209.66;;;8.21;100.00
26320;BME280;14024;52.226;5.200;2023-11-21T02:14:09;101209.44;;;8.27;100.00
26320;BME280;14024;52.226;5.200;2023-11-21T02:16:35;101215.47;;;8.32;100.00
26320;BME280;14024;52.226;5.200;2023-11-21T02:19:02;101213.69;;;8.33;100.00
26320;BME280;14024;52.226;5.200;2023-11-21T02:21:29;101216.25;;;8.34;100.00
26320;BME280;14024;52.226;5.200;2023-11-21T02:23:55;101223.16;;;8.38;100.00
26320;BME280;14024;52.226;5.200;2023-11-21T02:26:21;101215.22;;;8.38;100.00
26320;BME280;14024;52.226;5.200;2023-11-21T02:28:46;101214.19;;;8.42;100.00
26320;BME280;14024;52.226;5.200;2023-11-21T02:31:11;101213.19;;;8.46;100.00
26320;BME280;14024;52.226;5.200;2023-11-21T02:33:38;101215.72;;;8.49;100.00
26320;BME280;14024;52.226;5.200;2023-11-21T02:36:05;101230.81;;;8.46;100.00
26320;BME280;14024;52.226;5.200;2023-11-21T02:38:30;101221.22;;;8.43;100.00
26320;BME280;14024;52.226;5.200;2023-11-21T02:40:57;101231.63;;;8.48;100.00
26320;BME280;14024;52.226;5.200;2023-11-21T02:43:24;101225.28;;;8.52;100.00
26320;BME280;14024;52.226;5.200;2023-11-21T02:45:49;101226.31;;;8.48;100.00
26320;BME280;14024;52.226;5.200;2023-11-21T02:48:15;101228.09;;;8.47;100.00
26320;BME280;14024;52.226;5.200;2023-11-21T02:50:40;101218.47;;;8.46;100.00
26320;BME280;14024;52.226;5.200;2023-11-21T02:53:05;101222.06;;;8.44;100.00
26320;BME280;14024;52.226;5.200;2023-11-21T02:55:31;101220.25;;;8.46;100.00
26320;BME280;14024;52.226;5.200;2023-11-21T02:58:00;101223.28;;;8.35;100.00
26320;BME280;14024;52.226;5.200;2023-11-21T03:00:25;101225.09;;;8.33;100.00
26320;BME280;14024;52.226;5.200;2023-11-21T03:02:50;101231.22;;;8.34;100.00
26320;BME280;14024;52.226;5.200;2023-11-21T03:05:16;101218.09;;;8.32;100.00
26320;BME280;14024;52.226;5.200;2023-11-21T03:07:41;101224.13;;;8.36;100.00
26320;BME280;14024;52.226;5.200;2023-11-21T03:10:07;101225.91;;;8.35;100.00
26320;BME280;14024;52.226;5.200;2023-11-21T03:12:39;101224.09;;;8.37;100.00
26320;BME280;14024;52.226;5.200;2023-11-21T03:15:06;101224.13;;;8.36;100.00
26320;BME280;14024;52.226;5.200;2023-11-21T03:17:31;101227.81;;;8.32;100.00
26320;BME280;14024;52.226;5.200;2023-11-21T03:19:58;101231.41;;;8.29;100.00
26320;BME280;14024;52.226;5.200;2023-11-21T03:22:24;101230.56;;;8.27;100.00
26320;BME280;14024;52.226;5.200;2023-11-21T03:24:50;101227.03;;;8.28;100.00
26320;BME280;14024;52.226;5.200;2023-11-21T03:27:15;101230.44;;;8.32;100.00
26320;BME280;14024;52.226;5.200;2023-11-21T03:29:40;101227.81;;;8.32;100.00
26320;BME280;14024;52.226;5.200;2023-11-21T03:32:06;101236.72;;;8.28;100.00
26320;BME280;14024;52.226;5.200;2023-11-21T03:34:32;101224.34;;;8.30;100.00
26320;BME280;14024;52.226;5.200;2023-11-21T03:36:57;101232.22;;;8.31;100.00
26320;BME280;14024;52.226;5.200;2023-11-21T03:39:23;101233.94;;;8.32;100.00
26320;BME280;14024;52.226;5.200;2023-11-21T03:41:50;101237.38;;;8.34;100.00
26320;BME280;14024;52.226;5.200;2023-11-21T03:44:17;101245.16;;;8.39;100.00
26320;BME280;14024;52.226;5.200;2023-11-21T03:46:43;101245.22;;;8.37;100.00
26320;BME280;14024;52.226;5.200;2023-11-21T03:49:08;101249.56;;;8.38;100.00
26320;BME280;14024;52.226;5.200;2023-11-21T03:51:33;101240.59;;;8.42;100.00
26320;BME280;14024;52.226;5.200;2023-11-21T03:53:59;101251.16;;;8.42;100.00
26320;BME280;14024;52.226;5.200;2023-11-21T03:56:24;101258.94;;;8.47;100.00
26320;BME280;14024;52.226;5.200;2023-11-21T03:58:49;101262.53;;;8.46;100.00
26320;BME280;14024;52.226;5.200;2023-11-21T04:01:25;101260.84;;;8.43;100.00
26320;BME280;14024;52.226;5.200;2023-11-21T04:03:51;101269.56;;;8.45;100.00
26320;BME280;14024;52.226;5.200;2023-11-21T04:06:17;101273.75;;;8.51;100.00
26320;BME280;14024;52.226;5.200;2023-11-21T04:08:46;101279.88;;;8.53;100.00
26320;BME280;14024;52.226;5.200;2023-11-21T04:11:12;101285.16;;;8.53;100.00
26320;BME280;14024;52.226;5.200;2023-11-21T04:13:38;101280.63;;;8.57;100.00
26320;BME280;14024;52.226;5.200;2023-11-21T04:16:05;101278.03;;;8.55;100.00
26320;BME280;14024;52.226;5.200;2023-11-21T04:18:31;101289.25;;;8.62;100.00
26320;BME280;14024;52.226;5.200;2023-11-21T04:20:56;101283.97;;;8.62;100.00
26320;BME280;14024;52.226;5.200;2023-11-21T04:23:22;101287.41;;;8.64;100.00
26320;BME280;14024;52.226;5.200;2023-11-21T04:25:47;101290.84;;;8.66;100.00
26320;BME280;14024;52.226;5.200;2023-11-21T04:28:12;101293.44;;;8.67;100.00
26320;BME280;14024;52.226;5.200;2023-11-21T04:30:38;101306.50;;;8.72;100.00
26320;BME280;14024;52.226;5.200;2023-11-21T04:33:04;101313.72;;;8.67;100.00
26320;BME280;14024;52.226;5.200;2023-11-21T04:35:30;101316.31;;;8.68;100.00
26320;BME280;14024;52.226;5.200;2023-11-21T04:37:55;101319.00;;;8.67;100.00
26320;BME280;14024;52.226;5.200;2023-11-21T04:40:22;101320.75;;;8.68;100.00
26320;BME280;14024;52.226;5.200;2023-11-21T04:42:47;101314.47;;;8.70;100.00
26320;BME280;14024;52.226;5.200;2023-11-21T04:45:13;101307.44;;;8.69;100.00
26320;BME280;14024;52.226;5.200;2023-11-21T04:47:38;101316.25;;;8.70;100.00
26320;BME280;14024;52.226;5.200;2023-11-21T04:50:04;101313.59;;;8.70;100.00
26320;BME280;14024;52.226;5.200;2023-11-21T04:52:30;101314.38;;;8.73;100.00
26320;BME280;14024;52.226;5.200;2023-11-21T04:54:56;101311.66;;;8.75;100.00
26320;BME280;14024;52.226;5.200;2023-11-21T04:57:23;101316.25;;;8.70;100.00
26320;BME280;14024;52.226;5.200;2023-11-21T04:59:49;101316.94;;;8.75;100.00
26320;BME280;14024;52.226;5.200;2023-11-21T05:02:14;101323.84;;;8.79;100.00
26320;BME280;14024;52.226;5.200;2023-11-21T05:04:39;101324.72;;;8.79;100.00
26320;BME280;14024;52.226;5.200;2023-11-21T05:07:05;101331.00;;;8.77;100.00
26320;BME280;14024;52.226;5.200;2023-11-21T05:09:30;101332.56;;;8.82;100.00
26320;BME280;14024;52.226;5.200;2023-11-21T05:11:57;101334.25;;;8.83;100.00
26320;BME280;14024;52.226;5.200;2023-11-21T05:14:23;101330.75;;;8.83;100.00
26320;BME280;14024;52.226;5.200;2023-11-21T05:16:48;101339.50;;;8.85;100.00
26320;BME280;14024;52.226;5.200;2023-11-21T05:19:13;101342.84;;;8.90;100.00
26320;BME280;14024;52.226;5.200;2023-11-21T05:21:38;101342.72;;;8.93;100.00
26320;BME280;14024;52.226;5.200;2023-11-21T05:24:04;101350.63;;;8.94;100.00
26320;BME280;14024;52.226;5.200;2023-11-21T05:26:30;101360.19;;;8.97;100.00
26320;BME280;14024;52.226;5.200;2023-11-21T05:28:56;101353.00;;;9.01;100.00
26320;BME280;14024;52.226;5.200;2023-11-21T05:31:21;101357.34;;;9.03;100.00
26320;BME280;14024;52.226;5.200;2023-11-21T05:33:47;101356.53;;;9.01;100.00
26320;BME280;14024;52.226;5.200;2023-11-21T05:36:12;101364.28;;;9.06;100.00
26320;BME280;14024;52.226;5.200;2023-11-21T05:38:38;101365.16;;;9.06;100.00
26320;BME280;14024;52.226;5.200;2023-11-21T05:41:03;101369.50;;;9.09;100.00
26320;BME280;14024;52.226;5.200;2023-11-21T05:43:29;101368.38;;;9.14;100.00
26320;BME280;14024;52.226;5.200;2023-11-21T05:45:55;101374.78;;;9.09;100.00
26320;BME280;14024;52.226;5.200;2023-11-21T05:48:21;101382.75;;;9.07;100.00
26320;BME280;14024;52.226;5.200;2023-11-21T05:50:47;101381.94;;;9.05;100.00
26320;BME280;14024;52.226;5.200;2023-11-21T05:53:14;101385.34;;;9.09;100.00
26320;BME280;14024;52.226;5.200;2023-11-21T05:55:41;101394.09;;;9.11;100.00
26320;BME280;14024;52.226;5.200;2023-11-21T05:58:06;101390.47;;;9.13;100.00
26320;BME280;14024;52.226;5.200;2023-11-21T06:00:32;101393.91;;;9.15;100.00
26320;BME280;14024;52.226;5.200;2023-11-21T06:02:58;101391.34;;;9.14;100.00
26320;BME280;14024;52.226;5.200;2023-11-21T06:05:25;101398.16;;;9.19;100.00
26320;BME280;14024;52.226;5.200;2023-11-21T06:07:52;101406.09;;;9.19;100.00
26320;BME280;14024;52.226;5.200;2023-11-21T06:10:22;101404.25;;;9.23;100.00
26320;BME280;14024;52.226;5.200;2023-11-21T06:12:49;101406.94;;;9.21;100.00
26320;BME280;14024;52.226;5.200;2023-11-21T06:15:14;101417.38;;;9.24;100.00
26320;BME280;14024;52.226;5.200;2023-11-21T06:17:42;101419.13;;;9.25;100.00
26320;BME280;14024;52.226;5.200;2023-11-21T06:20:09;101425.16;;;9.29;100.00
26320;BME280;14024;52.226;5.200;2023-11-21T06:22:37;101423.25;;;9.32;100.00
26320;BME280;14024;52.226;5.200;2023-11-21T06:25:03;101425.84;;;9.34;100.00
26320;BME280;14024;52.226;5.200;2023-11-21T06:27:38;101428.22;;;9.41;100.00
26320;BME280;14024;52.226;5.200;2023-11-21T06:30:04;101424.53;;;9.46;100.00
26320;BME280;14024;52.226;5.200;2023-11-21T06:32:29;101427.72;;;9.55;100.00
26320;BME280;14024;52.226;5.200;2023-11-21T06:34:56;101433.88;;;9.56;100.00
26320;BME280;14024;52.226;5.200;2023-11-21T06:37:26;101436.25;;;9.63;100.00
26320;BME280;14024;52.226;5.200;2023-11-21T06:39:51;101425.53;;;9.66;100.00
26320;BME280;14024;52.226;5.200;2023-11-21T06:42:17;101427.09;;;9.72;100.00
26320;BME280;14024;52.226;5.200;2023-11-21T06:44:44;101430.63;;;9.72;100.00
26320;BME280;14024;52.226;5.200;2023-11-21T06:47:10;101437.69;;;9.72;100.00
26320;BME280;14024;52.226;5.200;2023-11-21T06:49:35;101450.91;;;9.72;100.00
26320;BME280;14024;52.226;5.200;2023-11-21T06:52:01;101450.44;;;9.84;100.00
26320;BME280;14024;52.226;5.200;2023-11-21T06:54:28;101452.19;;;9.85;100.00
26320;BME280;14024;52.226;5.200;2023-11-21T06:56:53;101455.63;;;9.87;100.00
26320;BME280;14024;52.226;5.200;2023-11-21T06:59:18;101458.22;;;9.89;100.00
26320;BME280;14024;52.226;5.200;2023-11-21T07:01:44;101458.22;;;9.89;100.00
26320;BME280;14024;52.226;5.200;2023-11-21T07:04:09;101462.28;;;9.97;100.00
26320;BME280;14024;52.226;5.200;2023-11-21T07:06:35;101470.94;;;10.02;100.00
26320;BME280;14024;52.226;5.200;2023-11-21T07:09:00;101463.91;;;10.01;100.00
26320;BME280;14024;52.226;5.200;2023-11-21T07:11:27;101471.84;;;10.01;100.00
26320;BME280;14024;52.226;5.200;2023-11-21T07:13:52;101475.41;;;10.00;100.00
26320;BME280;14024;52.226;5.200;2023-11-21T07:16:18;101482.09;;;10.10;100.00
26320;BME280;14024;52.226;5.200;2023-11-21T07:18:45;101475.91;;;10.10;100.00
26320;BME280;14024;52.226;5.200;2023-11-21T07:21:11;101476.59;;;10.16;100.00
26320;BME280;14024;52.226;5.200;2023-11-21T07:23:40;101481.03;;;10.14;100.00
26320;BME280;14024;52.226;5.200;2023-11-21T07:26:06;101477.59;;;10.12;100.00
26320;BME280;14024;52.226;5.200;2023-11-21T07:28:34;101488.38;;;10.08;100.00
26320;BME280;14024;52.226;5.200;2023-11-21T07:31:00;101495.31;;;10.10;100.00
26320;BME280;14024;52.226;5.200;2023-11-21T07:33:26;101495.00;;;10.19;100.00
26320;BME280;14024;52.226;5.200;2023-11-21T07:35:51;101507.47;;;10.17;100.00
26320;BME280;14024;52.226;5.200;2023-11-21T07:38:17;101504.69;;;10.20;100.00
26320;BME280;14024;52.226;5.200;2023-11-21T07:40:43;101521.16;;;10.28;100.00
26320;BME280;14024;52.226;5.200;2023-11-21T07:43:08;101518.31;;;10.33;100.00
26320;BME280;14024;52.226;5.200;2023-11-21T07:45:34;101522.81;;;10.31;100.00
26320;BME280;14024;52.226;5.200;2023-11-21T07:47:59;101521.84;;;10.34;100.00
26320;BME280;14024;52.226;5.200;2023-11-21T07:50:26;101528.00;;;10.34;100.00
26320;BME280;14024;52.226;5.200;2023-11-21T07:52:51;101533.25;;;10.36;100.00
26320;BME280;14024;52.226;5.200;2023-11-21T07:55:19;101542.22;;;10.32;100.00
26320;BME280;14024;52.226;5.200;2023-11-21T07:57:45;101541.13;;;10.37;100.00
26320;BME280;14024;52.226;5.200;2023-11-21T08:00:11;101553.41;;;10.40;100.00
26320;BME280;14024;52.226;5.200;2023-11-21T08:02:40;101564.09;;;10.37;100.00
26320;BME280;14024;52.226;5.200;2023-11-21T08:05:11;101552.47;;;10.41;100.00
26320;BME280;14024;52.226;5.200;2023-11-21T08:07:37;101564.00;;;10.40;100.00
26320;BME280;14024;52.226;5.200;2023-11-21T08:10:02;101576.31;;;10.41;100.00
26320;BME280;14024;52.226;5.200;2023-11-21T08:12:30;101584.03;;;10.47;100.00
26320;BME280;14024;52.226;5.200;2023-11-21T08:14:55;101590.16;;;10.49;100.00
26320;BME280;14024;52.226;5.200;2023-11-21T08:17:20;101585.19;;;10.40;100.00
26320;BME280;14024;52.226;5.200;2023-11-21T08:19:46;101592.91;;;10.46;100.00
26320;BME280;14024;52.226;5.200;2023-11-21T08:22:17;101593.03;;;10.43;100.00
26320;BME280;14024;52.226;5.200;2023-11-21T08:24:43;101601.66;;;10.48;100.00
26320;BME280;14024;52.226;5.200;2023-11-21T08:27:08;101611.09;;;10.55;100.00
26320;BME280;14024;52.226;5.200;2023-11-21T08:29:34;101613.75;;;10.55;100.00
26320;BME280;14024;52.226;5.200;2023-11-21T08:32:01;101603.06;;;10.58;100.00
26320;BME280;14024;52.226;5.200;2023-11-21T08:34:27;101615.00;;;10.68;100.00
26320;BME280;14024;52.226;5.200;2023-11-21T08:36:55;101619.44;;;10.67;100.00
26320;BME280;14024;52.226;5.200;2023-11-21T08:39:22;101632.53;;;10.72;100.00
26320;BME280;14024;52.226;5.200;2023-11-21T08:41:52;101630.69;;;10.74;100.00
26320;BME280;14024;52.226;5.200;2023-11-21T08:44:17;101634.19;;;10.74;100.00
26320;BME280;14024;52.226;5.200;2023-11-21T08:46:47;101646.38;;;10.80;100.00
26320;BME280;14024;52.226;5.200;2023-11-21T08:49:12;101642.75;;;10.81;100.00
26320;BME280;14024;52.226;5.200;2023-11-21T08:51:38;101649.03;;;10.80;100.00
26320;BME280;14024;52.226;5.200;2023-11-21T08:54:04;101660.41;;;10.82;100.00
26320;BME280;14024;52.226;5.200;2023-11-21T08:56:35;101662.38;;;10.77;100.00
26320;BME280;14024;52.226;5.200;2023-11-21T08:59:01;101665.09;;;10.76;100.00
26320;BME280;14024;52.226;5.200;2023-11-21T09:01:28;101664.34;;;10.72;100.00
26320;BME280;14024;52.226;5.200;2023-11-21T09:03:56;101669.88;;;10.66;100.00
26320;BME280;14024;52.226;5.200;2023-11-21T09:06:22;101681.59;;;10.60;100.00
26320;BME280;14024;52.226;5.200;2023-11-21T09:08:47;101674.63;;;10.58;100.00
26320;BME280;14024;52.226;5.200;2023-11-21T09:11:14;101678.81;;;10.63;100.00
26320;BME280;14024;52.226;5.200;2023-11-21T09:13:39;101687.97;;;10.55;100.00
26320;BME280;14024;52.226;5.200;2023-11-21T09:16:08;101689.69;;;10.56;100.00
26320;BME280;14024;52.226;5.200;2023-11-21T09:18:33;101687.09;;;10.54;100.00
26320;BME280;14024;52.226;5.200;2023-11-21T09:20:59;101693.44;;;10.50;100.00
26320;BME280;14024;52.226;5.200;2023-11-21T09:23:24;101692.53;;;10.51;100.00
26320;BME280;14024;52.226;5.200;2023-11-21T09:25:50;101701.47;;;10.49;100.00
26320;BME280;14024;52.226;5.200;2023-11-21T09:28:17;101700.66;;;10.47;100.00
26320;BME280;14024;52.226;5.200;2023-11-21T09:30:42;101706.00;;;10.45;100.00
26320;BME280;14024;52.226;5.200;2023-11-21T09:33:08;101712.91;;;10.49;100.00
26320;BME280;14024;52.226;5.200;2023-11-21T09:35:37;101718.28;;;10.48;100.00
26320;BME280;14024;52.226;5.200;2023-11-21T09:38:03;101730.63;;;10.49;100.00
26320;BME280;14024;52.226;5.200;2023-11-21T09:40:30;101734.97;;;10.50;100.00
26320;BME280;14024;52.226;5.200;2023-11-21T09:42:57;101739.56;;;10.45;100.00
26320;BME280;14024;52.226;5.200;2023-11-21T09:45:32;101741.16;;;10.50;100.00
26320;BME280;14024;52.226;5.200;2023-11-21T09:48:00;101739.50;;;10.48;100.00
26320;BME280;14024;52.226;5.200;2023-11-21T09:50:26;101747.31;;;10.51;100.00
26320;BME280;14024;52.226;5.200;2023-11-21T09:55:42;101757.88;;;10.52;100.00
26320;BME280;14024;52.226;5.200;2023-11-21T09:58:09;101759.88;;;10.46;100.00
26320;BME280;14024;52.226;5.200;2023-11-21T10:00:39;101760.56;;;10.51;100.00
26320;BME280;14024;52.226;5.200;2023-11-21T10:03:05;101754.31;;;10.53;100.00
26320;BME280;14024;52.226;5.200;2023-11-21T10:05:30;101764.06;;;10.53;100.00
26320;BME280;14024;52.226;5.200;2023-11-21T10:07:59;101766.63;;;10.54;100.00
26320;BME280;14024;52.226;5.200;2023-11-21T10:10:25;101770.25;;;10.52;100.00
26320;BME280;14024;52.226;5.200;2023-11-21T10:12:56;101775.41;;;10.56;100.00
26320;BME280;14024;52.226;5.200;2023-11-21T10:15:23;101779.84;;;10.56;100.00
26320;BME280;14024;52.226;5.200;2023-11-21T10:17:52;101789.53;;;10.57;100.00
26320;BME280;14024;52.226;5.200;2023-11-21T10:20:19;101790.56;;;10.53;100.00
26320;BME280;14024;52.226;5.200;2023-11-21T10:22:44;101797.41;;;10.58;100.00
26320;BME280;14024;52.226;5.200;2023-11-21T10:25:11;101798.28;;;10.59;100.00
26320;BME280;14024;52.226;5.200;2023-11-21T10:27:40;101809.91;;;10.55;100.00
26320;BME280;14024;52.226;5.200;2023-11-21T10:30:07;101803.81;;;10.53;100.00
26320;BME280;14024;52.226;5.200;2023-11-21T10:32:33;101814.50;;;10.50;100.00
26320;BME280;14024;52.226;5.200;2023-11-21T10:34:59;101827.75;;;10.50;100.00
26320;BME280;14024;52.226;5.200;2023-11-21T10:37:32;101835.84;;;10.45;100.00
26320;BME280;14024;52.226;5.200;2023-11-21T10:40:01;101837.59;;;10.46;100.00
26320;BME280;14024;52.226;5.200;2023-11-21T10:42:26;101833.28;;;10.44;100.00
26320;BME280;14024;52.226;5.200;2023-11-21T10:44:53;101835.00;;;10.45;100.00
26320;BME280;14024;52.226;5.200;2023-11-21T10:47:19;101837.59;;;10.46;100.00
26320;BME280;14024;52.226;5.200;2023-11-21T10:49:48;101834.94;;;10.46;100.00
26320;BME280;14024;52.226;5.200;2023-11-21T10:52:13;101834.03;;;10.47;100.00
26320;BME280;14024;52.226;5.200;2023-11-21T10:54:42;101841.94;;;10.49;100.00
26320;BME280;14024;52.226;5.200;2023-11-21T10:57:08;101845.44;;;10.49;100.00
26320;BME280;14024;52.226;5.200;2023-11-21T10:59:34;101848.88;;;10.53;100.00
26320;BME280;14024;52.226;5.200;2023-11-21T11:02:01;101845.38;;;10.51;100.00
26320;BME280;14024;52.226;5.200;2023-11-21T11:04:28;101852.31;;;10.55;100.00
26320;BME280;14024;52.226;5.200;2023-11-21T11:06:55;101863.75;;;10.57;100.00
26320;BME280;14024;52.226;5.200;2023-11-21T11:09:22;101865.47;;;10.58;100.00
26320;BME280;14024;52.226;5.200;2023-11-21T11:11:48;101871.03;;;10.50;100.00
26320;BME280;14024;52.226;5.200;2023-11-21T11:14:14;101875.38;;;10.53;100.00
26320;BME280;14024;52.226;5.200;2023-11-21T11:16:40;101879.84;;;10.51;100.00
26320;BME280;14024;52.226;5.200;2023-11-21T11:19:09;101878.94;;;10.52;100.00
26320;BME280;14024;52.226;5.200;2023-11-21T11:27:20;101872.16;;;10.43;100.00
26320;BME280;14024;52.226;5.200;2023-11-21T11:29:52;101873.91;;;10.44;100.00
26320;BME280;14024;52.226;5.200;2023-11-21T11:32:40;101872.16;;;10.43;100.00
26320;BME280;14024;52.226;5.200;2023-11-21T11:35:24;101876.63;;;10.41;99.89
26320;BME280;14024;52.226;5.200;2023-11-21T11:37:52;101893.28;;;10.45;100.00
26320;BME280;14024;52.226;5.200;2023-11-21T11:40:18;101884.56;;;10.43;99.57
26320;BME280;14024;52.226;5.200;2023-11-21T11:43:01;101888.94;;;10.44;99.70
26320;BME280;14024;52.226;5.200;2023-11-21T11:45:32;101884.34;;;10.49;99.73
26320;BME280;14024;52.226;5.200;2023-11-21T11:48:00;101899.28;;;10.51;99.94
26320;BME280;14024;52.226;5.200;2023-11-21T11:50:25;101900.94;;;10.54;99.24
26320;BME280;14024;52.226;5.200;2023-11-21T11:52:55;101904.53;;;10.53;98.71
26320;BME280;14024;52.226;5.200;2023-11-21T11:55:23;101908.09;;;10.52;98.58
26320;BME280;14024;52.226;5.200;2023-11-21T11:57:51;101912.56;;;10.50;98.77
26320;BME280;14024;52.226;5.200;2023-11-21T12:00:22;101903.84;;;10.46;99.08
26320;BME280;14024;52.226;5.200;2023-11-21T12:02:58;101918.75;;;10.50;99.41
26320;BME280;14024;52.226;5.200;2023-11-21T12:05:27;101910.75;;;10.52;99.13
26320;BME280;14024;52.226;5.200;2023-11-21T12:07:57;101909.84;;;10.53;98.87
26320;BME280;14024;52.226;5.200;2023-11-21T12:10:31;101908.84;;;10.55;99.18
26320;BME280;14024;52.226;5.200;2023-11-21T12:12:59;101919.31;;;10.60;99.60
26320;BME280;14024;52.226;5.200;2023-11-21T12:15:25;101913.88;;;10.63;98.77
26320;BME280;14024;52.226;5.200;2023-11-21T12:17:52;101913.88;;;10.63;98.97
26320;BME280;14024;52.226;5.200;2023-11-21T12:20:19;101907.66;;;10.64;98.16
26320;BME280;14024;52.226;5.200;2023-11-21T12:22:49;101912.88;;;10.67;99.33
26320;BME280;14024;52.226;5.200;2023-11-21T12:25:19;101920.84;;;10.67;98.87
26320;BME280;14024;52.226;5.200;2023-11-21T12:27:46;101926.94;;;10.69;98.77
26320;BME280;14024;52.226;5.200;2023-11-21T12:30:12;101933.16;;;10.68;99.22
26320;BME280;14024;52.226;5.200;2023-11-21T12:32:49;101938.47;;;10.68;98.76
26320;BME280;14024;52.226;5.200;2023-11-21T12:35:17;101935.94;;;10.65;98.64
26320;BME280;14024;52.226;5.200;2023-11-21T12:37:45;101940.31;;;10.66;98.83
26320;BME280;14024;52.226;5.200;2023-11-21T12:40:12;101935.88;;;10.66;99.09
26320;BME280;14024;52.226;5.200;2023-11-21T12:42:41;101947.44;;;10.64;99.03
26320;BME280;14024;52.226;5.200;2023-11-21T12:47:42;101952.25;;;10.53;99.59
26320;BME280;14024;52.226;5.200;2023-11-21T12:50:08;101960.38;;;10.47;99.49
26320;BME280;14024;52.226;5.200;2023-11-21T12:52:42;101964.56;;;10.54;99.33